ASW weather

Aswan International Airport
Aswan, Aswan Governorate, Egypt

Public forecast

Using degrees Celsius for public forecast. Weather courtesy of forecast.io.

Current aviation weather report (METAR) for Aswan International Airport

Report is more than 2 hours old.

Retrieved 2019/12/05 14:00 UTC (3 hours ago):

HESN 051400Z 36005KT CAVOK 26/04 Q1015 NOSIG

Aviation forecast (TAF) for Aswan International Airport

Retrieved 2019/12/05 12:33 UTC (4 hours ago):

TAF HESN 051100Z 0512/0618 36012KT CAVOK